Terminal Aerodrome Forecast
Issued by NWS

Home | Current Version | Previous Version | Text Only | Print | Product List | Glossary On
Versions: 1 2 3 4 5 6 7 8 9 10 11 12 13 14 15 16 17 18 19 20 21 22 23 24
146
FTUS41 KBGM 120158 AAA
TAFRME
TAF AMD
KRME 120158Z 1202/1224 32005KT P6SM BKN035
      TEMPO 1205/1208 2SM -SHSN OVC026
     FM120900 21006KT P6SM SCT020 BKN035
     FM121900 18011KT P6SM BKN050=

USA.gov is the U.S. government's official web portal to all federal, state and local government web resources and services.